sensor_id;sensor_type;location;lat;lon;timestamp;pressure;altitude;pressure_sealevel;temperature;humidity
14689;BME280;7432;48.728;9.154;2022-08-03T00:00:52;96675.34;;;19.79;71.42
14689;BME280;7432;48.728;9.154;2022-08-03T00:03:18;96671.19;;;19.71;71.70
14689;BME280;7432;48.728;9.154;2022-08-03T00:05:45;96673.84;;;19.65;71.83
14689;BME280;7432;48.728;9.154;2022-08-03T00:08:13;96675.03;;;19.69;72.04
14689;BME280;7432;48.728;9.154;2022-08-03T00:10:39;96670.63;;;19.63;71.68
14689;BME280;7432;48.728;9.154;2022-08-03T00:13:06;96680.50;;;19.61;71.88
14689;BME280;7432;48.728;9.154;2022-08-03T00:15:32;96673.06;;;19.64;71.87
14689;BME280;7432;48.728;9.154;2022-08-03T00:17:59;96677.09;;;19.60;71.70
14689;BME280;7432;48.728;9.154;2022-08-03T00:20:26;96678.09;;;19.59;71.56
14689;BME280;7432;48.728;9.154;2022-08-03T00:22:52;96679.94;;;19.59;71.46
14689;BME280;7432;48.728;9.154;2022-08-03T00:25:20;96671.88;;;19.60;71.95
14689;BME280;7432;48.728;9.154;2022-08-03T00:27:46;96679.16;;;19.51;72.44
14689;BME280;7432;48.728;9.154;2022-08-03T00:30:14;96668.13;;;19.49;72.13
14689;BME280;7432;48.728;9.154;2022-08-03T00:32:40;96667.72;;;19.52;72.66
14689;BME280;7432;48.728;9.154;2022-08-03T00:35:07;96670.50;;;19.51;73.02
14689;BME280;7432;48.728;9.154;2022-08-03T00:37:34;96665.69;;;19.55;72.92
14689;BME280;7432;48.728;9.154;2022-08-03T00:40:00;96660.13;;;19.44;73.31
14689;BME280;7432;48.728;9.154;2022-08-03T00:42:28;96672.38;;;19.44;73.59
14689;BME280;7432;48.728;9.154;2022-08-03T00:44:55;96663.97;;;19.42;73.72
14689;BME280;7432;48.728;9.154;2022-08-03T00:47:21;96665.19;;;19.39;74.22
14689;BME280;7432;48.728;9.154;2022-08-03T00:49:47;96661.78;;;19.39;74.45
14689;BME280;7432;48.728;9.154;2022-08-03T00:52:14;96661.94;;;19.37;74.47
14689;BME280;7432;48.728;9.154;2022-08-03T00:54:41;96670.00;;;19.36;74.52
14689;BME280;7432;48.728;9.154;2022-08-03T00:57:07;96659.75;;;19.34;74.80
14689;BME280;7432;48.728;9.154;2022-08-03T00:59:35;96666.41;;;19.30;74.76
14689;BME280;7432;48.728;9.154;2022-08-03T01:02:03;96656.78;;;19.24;75.25
14689;BME280;7432;48.728;9.154;2022-08-03T01:04:29;96655.00;;;19.18;75.75
14689;BME280;7432;48.728;9.154;2022-08-03T01:07:01;96654.19;;;19.24;75.38
14689;BME280;7432;48.728;9.154;2022-08-03T01:09:35;96661.03;;;19.25;74.81
14689;BME280;7432;48.728;9.154;2022-08-03T01:12:07;96652.78;;;19.22;74.95
14689;BME280;7432;48.728;9.154;2022-08-03T01:14:39;96649.78;;;19.18;75.18
14689;BME280;7432;48.728;9.154;2022-08-03T01:17:12;96644.22;;;19.15;75.27
14689;BME280;7432;48.728;9.154;2022-08-03T01:19:48;96646.22;;;19.13;75.36
14689;BME280;7432;48.728;9.154;2022-08-03T01:22:44;96637.22;;;19.09;75.64
14689;BME280;7432;48.728;9.154;2022-08-03T01:25:23;96640.22;;;19.06;75.98
14689;BME280;7432;48.728;9.154;2022-08-03T01:28:01;96639.91;;;18.96;75.95
14689;BME280;7432;48.728;9.154;2022-08-03T01:30:39;96645.31;;;18.94;75.98
14689;BME280;7432;48.728;9.154;2022-08-03T01:33:12;96640.09;;;18.94;75.91
14689;BME280;7432;48.728;9.154;2022-08-03T01:35:42;96630.78;;;19.05;75.51
14689;BME280;7432;48.728;9.154;2022-08-03T01:38:13;96635.25;;;18.98;75.77
14689;BME280;7432;48.728;9.154;2022-08-03T01:40:41;96626.22;;;18.93;76.20
14689;BME280;7432;48.728;9.154;2022-08-03T01:43:12;96637.28;;;18.96;76.02
14689;BME280;7432;48.728;9.154;2022-08-03T01:45:42;96619.84;;;18.89;75.97
14689;BME280;7432;48.728;9.154;2022-08-03T01:48:10;96621.47;;;18.90;76.71
14689;BME280;7432;48.728;9.154;2022-08-03T01:50:39;96630.13;;;18.84;76.44
14689;BME280;7432;48.728;9.154;2022-08-03T01:53:07;96623.88;;;18.85;76.64
14689;BME280;7432;48.728;9.154;2022-08-03T01:55:36;96620.09;;;18.81;76.96
14689;BME280;7432;48.728;9.154;2022-08-03T01:58:04;96626.34;;;18.74;77.25
14689;BME280;7432;48.728;9.154;2022-08-03T02:00:34;96618.09;;;18.77;76.89
14689;BME280;7432;48.728;9.154;2022-08-03T02:03:04;96620.72;;;18.70;77.11
14689;BME280;7432;48.728;9.154;2022-08-03T02:05:31;96617.50;;;18.75;76.93
14689;BME280;7432;48.728;9.154;2022-08-03T02:07:59;96619.91;;;18.76;76.91
14689;BME280;7432;48.728;9.154;2022-08-03T02:10:27;96616.69;;;18.74;76.95
14689;BME280;7432;48.728;9.154;2022-08-03T02:12:56;96617.91;;;18.72;77.25
14689;BME280;7432;48.728;9.154;2022-08-03T02:15:24;96613.31;;;18.67;77.38
14689;BME280;7432;48.728;9.154;2022-08-03T02:17:52;96615.13;;;18.67;77.73
14689;BME280;7432;48.728;9.154;2022-08-03T02:20:21;96620.97;;;18.62;77.98
14689;BME280;7432;48.728;9.154;2022-08-03T02:22:47;96619.16;;;18.63;78.10
14689;BME280;7432;48.728;9.154;2022-08-03T02:25:14;96622.59;;;18.63;78.18
14689;BME280;7432;48.728;9.154;2022-08-03T02:27:45;96618.13;;;18.64;78.05
14689;BME280;7432;48.728;9.154;2022-08-03T02:30:14;96621.38;;;18.59;78.62
14689;BME280;7432;48.728;9.154;2022-08-03T02:32:43;96619.41;;;18.55;78.83
14689;BME280;7432;48.728;9.154;2022-08-03T02:35:14;96624.63;;;18.48;78.88
14689;BME280;7432;48.728;9.154;2022-08-03T02:37:46;96618.38;;;18.56;78.54
14689;BME280;7432;48.728;9.154;2022-08-03T02:40:14;96616.56;;;18.56;78.61
14689;BME280;7432;48.728;9.154;2022-08-03T02:42:44;96619.81;;;18.52;78.90
14689;BME280;7432;48.728;9.154;2022-08-03T02:45:13;96617.63;;;18.49;79.02
14689;BME280;7432;48.728;9.154;2022-08-03T02:47:42;96619.78;;;18.45;79.24
14689;BME280;7432;48.728;9.154;2022-08-03T02:50:11;96621.41;;;18.40;79.63
14689;BME280;7432;48.728;9.154;2022-08-03T02:52:40;96610.78;;;18.41;79.81
14689;BME280;7432;48.728;9.154;2022-08-03T02:55:09;96616.41;;;18.38;79.80
14689;BME280;7432;48.728;9.154;2022-08-03T02:57:36;96608.19;;;18.28;80.53
14689;BME280;7432;48.728;9.154;2022-08-03T03:00:06;96616.84;;;18.28;80.33
14689;BME280;7432;48.728;9.154;2022-08-03T03:02:33;96616.25;;;18.26;80.47
14689;BME280;7432;48.728;9.154;2022-08-03T03:05:00;96615.03;;;18.29;80.52
14689;BME280;7432;48.728;9.154;2022-08-03T03:07:27;96617.25;;;18.25;80.94
14689;BME280;7432;48.728;9.154;2022-08-03T03:09:54;96611.66;;;18.22;81.65
14689;BME280;7432;48.728;9.154;2022-08-03T03:12:23;96615.25;;;18.21;81.61
14689;BME280;7432;48.728;9.154;2022-08-03T03:14:51;96616.47;;;18.18;81.89
14689;BME280;7432;48.728;9.154;2022-08-03T03:17:18;96611.66;;;18.22;81.48
14689;BME280;7432;48.728;9.154;2022-08-03T03:19:46;96608.44;;;18.20;81.58
14689;BME280;7432;48.728;9.154;2022-08-03T03:22:15;96610.03;;;18.21;81.84
14689;BME280;7432;48.728;9.154;2022-08-03T03:24:43;96614.25;;;18.09;82.37
14689;BME280;7432;48.728;9.154;2022-08-03T03:27:12;96606.25;;;18.10;82.30
14689;BME280;7432;48.728;9.154;2022-08-03T03:29:41;96611.66;;;18.15;82.41
14689;BME280;7432;48.728;9.154;2022-08-03T03:32:07;96608.47;;;18.07;82.80
14689;BME280;7432;48.728;9.154;2022-08-03T03:34:34;96603.84;;;18.15;82.42
14689;BME280;7432;48.728;9.154;2022-08-03T03:37:01;96608.47;;;18.13;82.45
14689;BME280;7432;48.728;9.154;2022-08-03T03:39:28;96601.22;;;18.09;82.79
14689;BME280;7432;48.728;9.154;2022-08-03T03:41:54;96609.50;;;18.06;83.12
14689;BME280;7432;48.728;9.154;2022-08-03T03:44:25;96613.50;;;18.02;83.40
14689;BME280;7432;48.728;9.154;2022-08-03T03:46:53;96607.47;;;18.01;83.21
14689;BME280;7432;48.728;9.154;2022-08-03T03:49:20;96608.47;;;18.07;83.38
14689;BME280;7432;48.728;9.154;2022-08-03T03:51:47;96609.66;;;18.04;83.36
14689;BME280;7432;48.728;9.154;2022-08-03T03:54:13;96607.28;;;18.03;83.46
14689;BME280;7432;48.728;9.154;2022-08-03T03:56:40;96611.88;;;18.01;83.81
14689;BME280;7432;48.728;9.154;2022-08-03T03:59:06;96607.88;;;17.98;83.84
14689;BME280;7432;48.728;9.154;2022-08-03T04:01:32;96607.72;;;17.87;84.73
14689;BME280;7432;48.728;9.154;2022-08-03T04:04:00;96607.50;;;17.88;84.73
14689;BME280;7432;48.728;9.154;2022-08-03T04:06:47;96608.50;;;17.94;84.20
14689;BME280;7432;48.728;9.154;2022-08-03T04:09:46;96607.28;;;17.96;83.97
14689;BME280;7432;48.728;9.154;2022-08-03T04:12:31;96610.69;;;17.97;83.99
14689;BME280;7432;48.728;9.154;2022-08-03T04:14:58;96612.09;;;17.93;84.27
14689;BME280;7432;48.728;9.154;2022-08-03T04:17:27;96605.09;;;18.00;83.92
14689;BME280;7432;48.728;9.154;2022-08-03T04:19:56;96616.69;;;18.04;83.84
14689;BME280;7432;48.728;9.154;2022-08-03T04:22:25;96614.69;;;17.99;84.43
14689;BME280;7432;48.728;9.154;2022-08-03T04:25:02;96615.28;;;18.01;84.21
14689;BME280;7432;48.728;9.154;2022-08-03T04:27:33;96618.47;;;18.10;83.90
14689;BME280;7432;48.728;9.154;2022-08-03T04:30:02;96622.31;;;18.14;83.63
14689;BME280;7432;48.728;9.154;2022-08-03T04:32:29;96617.50;;;18.11;83.68
14689;BME280;7432;48.728;9.154;2022-08-03T04:34:57;96621.28;;;18.15;83.94
14689;BME280;7432;48.728;9.154;2022-08-03T04:37:32;96625.28;;;18.17;83.99
14689;BME280;7432;48.728;9.154;2022-08-03T04:40:02;96629.69;;;18.23;83.85
14689;BME280;7432;48.728;9.154;2022-08-03T04:42:32;96623.84;;;18.28;83.45
14689;BME280;7432;48.728;9.154;2022-08-03T04:44:59;96630.66;;;18.35;83.76
14689;BME280;7432;48.728;9.154;2022-08-03T04:47:29;96629.06;;;18.41;83.37
14689;BME280;7432;48.728;9.154;2022-08-03T04:49:59;96641.09;;;18.49;83.37
14689;BME280;7432;48.728;9.154;2022-08-03T04:52:26;96639.28;;;18.49;83.27
14689;BME280;7432;48.728;9.154;2022-08-03T04:54:52;96641.47;;;18.52;83.23
14689;BME280;7432;48.728;9.154;2022-08-03T04:57:19;96642.47;;;18.58;83.27
14689;BME280;7432;48.728;9.154;2022-08-03T04:59:45;96641.03;;;18.62;83.13
14689;BME280;7432;48.728;9.154;2022-08-03T05:02:13;96645.22;;;18.69;82.85
14689;BME280;7432;48.728;9.154;2022-08-03T05:04:40;96641.38;;;18.78;82.17
14689;BME280;7432;48.728;9.154;2022-08-03T05:07:12;96637.53;;;18.81;82.30
14689;BME280;7432;48.728;9.154;2022-08-03T05:09:38;96642.53;;;18.89;81.82
14689;BME280;7432;48.728;9.154;2022-08-03T05:12:05;96649.31;;;18.97;81.28
14689;BME280;7432;48.728;9.154;2022-08-03T05:14:31;96640.88;;;19.01;81.06
14689;BME280;7432;48.728;9.154;2022-08-03T05:16:58;96639.41;;;19.12;80.91
14689;BME280;7432;48.728;9.154;2022-08-03T05:19:24;96649.38;;;19.21;80.76
14689;BME280;7432;48.728;9.154;2022-08-03T05:21:51;96649.94;;;19.30;81.10
14689;BME280;7432;48.728;9.154;2022-08-03T05:24:19;96655.91;;;19.43;80.35
14689;BME280;7432;48.728;9.154;2022-08-03T05:26:45;96656.44;;;19.52;79.84
14689;BME280;7432;48.728;9.154;2022-08-03T05:29:11;96652.34;;;19.63;79.58
14689;BME280;7432;48.728;9.154;2022-08-03T05:31:38;96655.47;;;19.78;78.76
14689;BME280;7432;48.728;9.154;2022-08-03T05:34:04;96655.53;;;19.89;77.76
14689;BME280;7432;48.728;9.154;2022-08-03T05:36:31;96647.16;;;20.05;77.37
14689;BME280;7432;48.728;9.154;2022-08-03T05:38:57;96653.28;;;20.18;77.11
14689;BME280;7432;48.728;9.154;2022-08-03T05:41:25;96663.38;;;20.39;75.51
14689;BME280;7432;48.728;9.154;2022-08-03T05:43:52;96652.13;;;20.56;74.26
14689;BME280;7432;48.728;9.154;2022-08-03T05:46:20;96650.84;;;20.77;73.63
14689;BME280;7432;48.728;9.154;2022-08-03T05:48:46;96659.84;;;20.99;73.12
14689;BME280;7432;48.728;9.154;2022-08-03T05:51:13;96658.00;;;21.18;72.07
14689;BME280;7432;48.728;9.154;2022-08-03T05:53:40;96653.75;;;21.35;71.18
14689;BME280;7432;48.728;9.154;2022-08-03T05:56:06;96651.41;;;21.57;70.20
14689;BME280;7432;48.728;9.154;2022-08-03T05:58:34;96654.88;;;21.80;68.77
14689;BME280;7432;48.728;9.154;2022-08-03T06:01:01;96660.06;;;21.99;68.08
14689;BME280;7432;48.728;9.154;2022-08-03T06:03:27;96655.84;;;22.21;67.83
14689;BME280;7432;48.728;9.154;2022-08-03T06:05:54;96660.41;;;22.49;66.08
14689;BME280;7432;48.728;9.154;2022-08-03T06:08:21;96649.97;;;22.77;65.61
14689;BME280;7432;48.728;9.154;2022-08-03T06:10:47;96653.84;;;23.14;62.98
14689;BME280;7432;48.728;9.154;2022-08-03T06:13:14;96666.53;;;23.62;61.30
14689;BME280;7432;48.728;9.154;2022-08-03T06:15:41;96669.03;;;25.22;58.47
14689;BME280;7432;48.728;9.154;2022-08-03T06:18:08;96673.75;;;27.66;52.07
14689;BME280;7432;48.728;9.154;2022-08-03T06:20:34;96672.97;;;29.64;47.60
14689;BME280;7432;48.728;9.154;2022-08-03T06:23:01;96681.09;;;31.17;43.60
14689;BME280;7432;48.728;9.154;2022-08-03T06:25:27;96693.53;;;33.28;39.85
14689;BME280;7432;48.728;9.154;2022-08-03T06:27:55;96688.47;;;35.22;37.09
14689;BME280;7432;48.728;9.154;2022-08-03T06:30:21;96691.16;;;36.79;33.97
14689;BME280;7432;48.728;9.154;2022-08-03T06:32:49;96698.00;;;37.97;31.72
14689;BME280;7432;48.728;9.154;2022-08-03T06:35:15;96692.81;;;38.94;30.80
14689;BME280;7432;48.728;9.154;2022-08-03T06:37:43;96689.34;;;39.30;30.15
14689;BME280;7432;48.728;9.154;2022-08-03T06:40:11;96691.09;;;39.50;29.28
14689;BME280;7432;48.728;9.154;2022-08-03T06:42:38;96695.00;;;40.48;27.97
14689;BME280;7432;48.728;9.154;2022-08-03T06:45:05;96692.25;;;40.33;28.60
14689;BME280;7432;48.728;9.154;2022-08-03T06:47:33;96696.38;;;41.05;27.53
14689;BME280;7432;48.728;9.154;2022-08-03T06:50:01;96695.03;;;41.84;27.23
14689;BME280;7432;48.728;9.154;2022-08-03T06:52:27;96698.94;;;42.25;26.20
14689;BME280;7432;48.728;9.154;2022-08-03T06:54:54;96707.69;;;41.61;26.10
14689;BME280;7432;48.728;9.154;2022-08-03T06:57:20;96702.19;;;41.38;26.60
14689;BME280;7432;48.728;9.154;2022-08-03T06:59:46;96693.38;;;40.32;27.24
14689;BME280;7432;48.728;9.154;2022-08-03T07:02:13;96697.31;;;39.27;28.35
14689;BME280;7432;48.728;9.154;2022-08-03T07:04:39;96700.56;;;39.32;28.76
14689;BME280;7432;48.728;9.154;2022-08-03T07:07:07;96701.34;;;40.56;27.43
14689;BME280;7432;48.728;9.154;2022-08-03T07:09:34;96707.69;;;41.42;27.22
14689;BME280;7432;48.728;9.154;2022-08-03T07:12:00;96716.28;;;42.01;26.18
14689;BME280;7432;48.728;9.154;2022-08-03T07:14:28;96720.03;;;42.54;25.80
14689;BME280;7432;48.728;9.154;2022-08-03T07:16:54;96718.38;;;42.72;25.13
14689;BME280;7432;48.728;9.154;2022-08-03T07:19:21;96714.78;;;43.66;23.99
14689;BME280;7432;48.728;9.154;2022-08-03T07:21:47;96709.59;;;44.17;23.63
14689;BME280;7432;48.728;9.154;2022-08-03T07:24:15;96704.25;;;44.68;24.18
14689;BME280;7432;48.728;9.154;2022-08-03T07:26:42;96710.16;;;44.77;23.57
14689;BME280;7432;48.728;9.154;2022-08-03T07:29:08;96716.38;;;44.74;23.55
14689;BME280;7432;48.728;9.154;2022-08-03T07:31:34;96709.03;;;44.82;23.73
14689;BME280;7432;48.728;9.154;2022-08-03T07:34:01;96719.41;;;44.65;22.69
14689;BME280;7432;48.728;9.154;2022-08-03T07:36:27;96715.47;;;43.89;23.89
14689;BME280;7432;48.728;9.154;2022-08-03T07:38:54;96714.78;;;43.99;23.74
14689;BME280;7432;48.728;9.154;2022-08-03T07:41:23;96714.41;;;43.67;24.75
14689;BME280;7432;48.728;9.154;2022-08-03T07:43:50;96712.22;;;44.10;23.88
14689;BME280;7432;48.728;9.154;2022-08-03T07:46:16;96715.16;;;45.15;23.14
14689;BME280;7432;48.728;9.154;2022-08-03T07:48:43;96720.34;;;46.14;22.72
14689;BME280;7432;48.728;9.154;2022-08-03T07:51:09;96724.34;;;47.01;22.27
14689;BME280;7432;48.728;9.154;2022-08-03T07:53:35;96719.66;;;47.47;21.68
14689;BME280;7432;48.728;9.154;2022-08-03T07:56:02;96718.88;;;47.43;20.83
14689;BME280;7432;48.728;9.154;2022-08-03T07:58:30;96715.72;;;47.55;20.82
14689;BME280;7432;48.728;9.154;2022-08-03T08:00:56;96713.31;;;47.72;19.99
14689;BME280;7432;48.728;9.154;2022-08-03T08:03:23;96709.41;;;48.49;20.30
14689;BME280;7432;48.728;9.154;2022-08-03T08:05:50;96717.88;;;48.72;20.17
14689;BME280;7432;48.728;9.154;2022-08-03T08:08:17;96712.59;;;48.95;19.54
14689;BME280;7432;48.728;9.154;2022-08-03T08:10:44;96710.38;;;48.80;20.00
14689;BME280;7432;48.728;9.154;2022-08-03T08:13:11;96710.66;;;48.96;19.72
14689;BME280;7432;48.728;9.154;2022-08-03T08:15:38;96716.91;;;49.37;19.36
14689;BME280;7432;48.728;9.154;2022-08-03T08:18:05;96700.44;;;47.69;20.17
14689;BME280;7432;48.728;9.154;2022-08-03T08:20:32;96705.22;;;47.36;20.45
14689;BME280;7432;48.728;9.154;2022-08-03T08:23:01;96707.56;;;46.46;20.21
14689;BME280;7432;48.728;9.154;2022-08-03T08:25:28;96706.03;;;47.05;20.39
14689;BME280;7432;48.728;9.154;2022-08-03T08:27:55;96706.03;;;47.30;20.30
14689;BME280;7432;48.728;9.154;2022-08-03T08:30:22;96708.03;;;46.83;20.30
14689;BME280;7432;48.728;9.154;2022-08-03T08:32:50;96709.16;;;46.79;20.26
14689;BME280;7432;48.728;9.154;2022-08-03T08:35:17;96701.44;;;43.84;22.06
14689;BME280;7432;48.728;9.154;2022-08-03T08:37:45;96706.03;;;46.70;20.47
14689;BME280;7432;48.728;9.154;2022-08-03T08:40:12;96706.38;;;47.46;20.46
14689;BME280;7432;48.728;9.154;2022-08-03T08:42:39;96703.59;;;47.67;20.13
14689;BME280;7432;48.728;9.154;2022-08-03T08:45:07;96703.50;;;47.85;19.65
14689;BME280;7432;48.728;9.154;2022-08-03T08:47:36;96702.75;;;49.42;19.28
14689;BME280;7432;48.728;9.154;2022-08-03T08:50:06;96705.50;;;49.01;19.51
14689;BME280;7432;48.728;9.154;2022-08-03T08:52:34;96708.84;;;49.94;18.42
14689;BME280;7432;48.728;9.154;2022-08-03T08:55:02;96697.66;;;49.03;18.65
14689;BME280;7432;48.728;9.154;2022-08-03T08:57:32;96708.84;;;49.91;18.64
14689;BME280;7432;48.728;9.154;2022-08-03T09:00:00;96710.22;;;50.36;18.07
14689;BME280;7432;48.728;9.154;2022-08-03T09:02:28;96716.53;;;50.83;17.81
14689;BME280;7432;48.728;9.154;2022-08-03T09:04:56;96723.31;;;51.02;17.59
14689;BME280;7432;48.728;9.154;2022-08-03T09:07:24;96710.47;;;50.45;17.77
14689;BME280;7432;48.728;9.154;2022-08-03T09:09:51;96714.78;;;50.46;17.97
14689;BME280;7432;48.728;9.154;2022-08-03T09:12:17;96717.47;;;51.00;17.37
14689;BME280;7432;48.728;9.154;2022-08-03T09:14:44;96717.81;;;50.78;18.07
14689;BME280;7432;48.728;9.154;2022-08-03T09:17:10;96706.22;;;51.14;17.44
14689;BME280;7432;48.728;9.154;2022-08-03T09:19:37;96702.22;;;51.61;17.22
14689;BME280;7432;48.728;9.154;2022-08-03T09:22:08;96706.59;;;51.78;17.15
14689;BME280;7432;48.728;9.154;2022-08-03T09:24:36;96702.56;;;51.83;17.22
14689;BME280;7432;48.728;9.154;2022-08-03T09:27:05;96693.94;;;49.95;17.28
14689;BME280;7432;48.728;9.154;2022-08-03T09:29:37;96688.28;;;49.04;18.88
14689;BME280;7432;48.728;9.154;2022-08-03T09:32:04;96693.31;;;47.96;19.08
14689;BME280;7432;48.728;9.154;2022-08-03T09:34:31;96691.13;;;48.94;18.76
14689;BME280;7432;48.728;9.154;2022-08-03T09:36:57;96697.56;;;50.15;17.42
14689;BME280;7432;48.728;9.154;2022-08-03T09:39:25;96697.22;;;50.40;17.89
14689;BME280;7432;48.728;9.154;2022-08-03T09:42:08;96691.31;;;51.15;16.97
14689;BME280;7432;48.728;9.154;2022-08-03T09:44:35;96698.56;;;51.25;16.84
14689;BME280;7432;48.728;9.154;2022-08-03T09:47:03;96698.38;;;49.82;17.59
14689;BME280;7432;48.728;9.154;2022-08-03T09:49:29;96703.78;;;50.19;16.95
14689;BME280;7432;48.728;9.154;2022-08-03T09:52:00;96694.34;;;47.15;17.68
14689;BME280;7432;48.728;9.154;2022-08-03T09:54:27;96693.59;;;46.97;17.55
14689;BME280;7432;48.728;9.154;2022-08-03T09:56:54;96686.31;;;48.57;17.48
14689;BME280;7432;48.728;9.154;2022-08-03T09:59:26;96688.66;;;49.44;17.64
14689;BME280;7432;48.728;9.154;2022-08-03T10:01:54;96689.81;;;50.10;16.66
14689;BME280;7432;48.728;9.154;2022-08-03T10:04:21;96683.50;;;50.13;16.65
14689;BME280;7432;48.728;9.154;2022-08-03T10:07:02;96686.91;;;50.48;16.80
14689;BME280;7432;48.728;9.154;2022-08-03T10:09:29;96676.38;;;49.55;16.78
14689;BME280;7432;48.728;9.154;2022-08-03T10:11:56;96681.78;;;50.23;16.90
14689;BME280;7432;48.728;9.154;2022-08-03T10:14:25;96674.19;;;49.06;17.40
14689;BME280;7432;48.728;9.154;2022-08-03T10:16:55;96667.53;;;48.00;18.05
14689;BME280;7432;48.728;9.154;2022-08-03T10:19:22;96672.53;;;46.80;19.05
14689;BME280;7432;48.728;9.154;2022-08-03T10:21:53;96655.63;;;45.07;20.44
14689;BME280;7432;48.728;9.154;2022-08-03T10:24:24;96662.75;;;46.36;18.85
14689;BME280;7432;48.728;9.154;2022-08-03T10:26:52;96663.94;;;48.14;18.00
14689;BME280;7432;48.728;9.154;2022-08-03T10:29:27;96665.53;;;49.48;17.98
14689;BME280;7432;48.728;9.154;2022-08-03T10:31:57;96661.59;;;49.12;17.20
14689;BME280;7432;48.728;9.154;2022-08-03T10:34:25;96657.97;;;47.57;18.34
14689;BME280;7432;48.728;9.154;2022-08-03T10:36:55;96653.63;;;47.70;17.79
14689;BME280;7432;48.728;9.154;2022-08-03T10:39:27;96646.75;;;46.07;19.47
14689;BME280;7432;48.728;9.154;2022-08-03T10:41:54;96645.28;;;46.48;19.59
14689;BME280;7432;48.728;9.154;2022-08-03T10:44:24;96653.03;;;46.95;18.93
14689;BME280;7432;48.728;9.154;2022-08-03T10:46:56;96644.44;;;48.12;18.04
14689;BME280;7432;48.728;9.154;2022-08-03T10:49:23;96636.69;;;48.58;18.38
14689;BME280;7432;48.728;9.154;2022-08-03T10:51:50;96640.13;;;47.24;18.27
14689;BME280;7432;48.728;9.154;2022-08-03T10:54:39;96634.75;;;46.39;19.32
14689;BME280;7432;48.728;9.154;2022-08-03T10:57:48;96624.22;;;46.48;19.06
14689;BME280;7432;48.728;9.154;2022-08-03T11:00:14;96630.91;;;44.75;20.08
14689;BME280;7432;48.728;9.154;2022-08-03T11:03:15;96619.88;;;46.02;19.35
14689;BME280;7432;48.728;9.154;2022-08-03T11:05:43;96619.88;;;46.16;19.12
14689;BME280;7432;48.728;9.154;2022-08-03T11:08:29;96618.94;;;45.59;19.62
14689;BME280;7432;48.728;9.154;2022-08-03T11:10:59;96626.16;;;46.87;19.18
14689;BME280;7432;48.728;9.154;2022-08-03T11:13:27;96627.28;;;47.11;18.91
14689;BME280;7432;48.728;9.154;2022-08-03T11:15:57;96621.84;;;46.08;19.21
14689;BME280;7432;48.728;9.154;2022-08-03T11:18:24;96617.81;;;45.63;19.96
14689;BME280;7432;48.728;9.154;2022-08-03T11:20:52;96609.69;;;44.98;20.38
14689;BME280;7432;48.728;9.154;2022-08-03T11:23:38;96617.47;;;45.68;20.15
14689;BME280;7432;48.728;9.154;2022-08-03T11:26:14;96607.06;;;46.66;19.35
14689;BME280;7432;48.728;9.154;2022-08-03T11:28:41;96609.41;;;46.81;18.94
14689;BME280;7432;48.728;9.154;2022-08-03T11:34:21;96594.25;;;42.59;22.35
14689;BME280;7432;48.728;9.154;2022-08-03T11:37:20;96593.06;;;42.11;22.58
14689;BME280;7432;48.728;9.154;2022-08-03T11:39:52;96596.78;;;42.71;22.04
14689;BME280;7432;48.728;9.154;2022-08-03T11:42:42;96591.75;;;42.50;22.42
14689;BME280;7432;48.728;9.154;2022-08-03T11:52:15;96572.19;;;41.92;22.82
14689;BME280;7432;48.728;9.154;2022-08-03T11:54:42;96580.38;;;41.34;23.86
14689;BME280;7432;48.728;9.154;2022-08-03T11:57:09;96578.06;;;40.82;24.07
14689;BME280;7432;48.728;9.154;2022-08-03T11:59:37;96566.63;;;40.54;24.87
14689;BME280;7432;48.728;9.154;2022-08-03T12:02:06;96560.56;;;40.10;25.06
14689;BME280;7432;48.728;9.154;2022-08-03T12:04:48;96561.31;;;40.27;25.18
14689;BME280;7432;48.728;9.154;2022-08-03T12:07:14;96565.06;;;40.38;24.89
14689;BME280;7432;48.728;9.154;2022-08-03T12:09:41;96557.84;;;40.26;24.48
14689;BME280;7432;48.728;9.154;2022-08-03T12:12:08;96558.03;;;39.74;25.34
14689;BME280;7432;48.728;9.154;2022-08-03T12:14:35;96560.66;;;39.03;26.83
14689;BME280;7432;48.728;9.154;2022-08-03T12:17:02;96554.59;;;38.09;26.67
14689;BME280;7432;48.728;9.154;2022-08-03T12:19:40;96550.78;;;37.65;27.03
14689;BME280;7432;48.728;9.154;2022-08-03T12:22:07;96550.63;;;36.67;29.09
14689;BME280;7432;48.728;9.154;2022-08-03T12:24:39;96551.88;;;36.32;29.09
14689;BME280;7432;48.728;9.154;2022-08-03T12:27:06;96537.50;;;35.98;29.16
14689;BME280;7432;48.728;9.154;2022-08-03T12:29:32;96536.81;;;35.63;30.06
14689;BME280;7432;48.728;9.154;2022-08-03T12:31:58;96535.88;;;34.99;30.27
14689;BME280;7432;48.728;9.154;2022-08-03T12:34:47;96542.66;;;34.80;30.83
14689;BME280;7432;48.728;9.154;2022-08-03T12:37:17;96536.47;;;34.62;30.91
14689;BME280;7432;48.728;9.154;2022-08-03T12:39:48;96534.03;;;34.35;32.03
14689;BME280;7432;48.728;9.154;2022-08-03T12:42:16;96527.25;;;34.29;31.38
14689;BME280;7432;48.728;9.154;2022-08-03T12:44:42;96527.50;;;34.10;30.86
14689;BME280;7432;48.728;9.154;2022-08-03T12:50:42;96520.78;;;33.90;31.69
14689;BME280;7432;48.728;9.154;2022-08-03T12:53:09;96522.69;;;33.90;31.94
14689;BME280;7432;48.728;9.154;2022-08-03T12:55:36;96517.66;;;33.66;32.42
14689;BME280;7432;48.728;9.154;2022-08-03T12:58:05;96522.41;;;33.69;32.66
14689;BME280;7432;48.728;9.154;2022-08-03T13:00:32;96513.97;;;33.54;32.30
14689;BME280;7432;48.728;9.154;2022-08-03T13:03:00;96513.97;;;33.31;32.50
14689;BME280;7432;48.728;9.154;2022-08-03T13:05:31;96509.25;;;33.06;32.94
14689;BME280;7432;48.728;9.154;2022-08-03T13:07:59;96504.56;;;32.90;33.05
14689;BME280;7432;48.728;9.154;2022-08-03T13:10:27;96504.78;;;33.02;33.06
14689;BME280;7432;48.728;9.154;2022-08-03T13:12:54;96510.66;;;32.90;33.14
14689;BME280;7432;48.728;9.154;2022-08-03T13:15:22;96528.72;;;33.07;33.53
14689;BME280;7432;48.728;9.154;2022-08-03T13:17:50;96515.59;;;32.97;32.88
14689;BME280;7432;48.728;9.154;2022-08-03T13:20:17;96503.81;;;32.98;33.58
14689;BME280;7432;48.728;9.154;2022-08-03T13:22:46;96511.03;;;32.97;33.28
14689;BME280;7432;48.728;9.154;2022-08-03T13:25:14;96501.00;;;33.16;33.23
14689;BME280;7432;48.728;9.154;2022-08-03T13:27:41;96507.91;;;33.39;32.93
14689;BME280;7432;48.728;9.154;2022-08-03T13:30:08;96500.41;;;33.42;32.91
14689;BME280;7432;48.728;9.154;2022-08-03T13:32:35;96504.16;;;33.40;32.64